Time;durP1;ratioP1;P1;durP2;ratioP2;P2;SDS_P1;SDS_P2;PMS_P1;PMS_P2;Temp;Humidity;BMP_temperature;BMP_pressure;BME280_temperature;BME280_humidity;BME280_pressure;Samples;Min_cycle;Max_cycle;Signal;HPM_P1;HPM_P2
2021/12/08 00:01:22;;;;;;;73.05;25.83;;;;;;;-1.88;88.38;98976.06;8429806;28;20052;-85
2021/12/08 00:05:23;;;;;;;75.90;24.08;;;;;;;-1.92;88.58;98971.47;8430163;28;20044;-83
2021/12/08 00:09:28;;;;;;;60.00;22.83;;;;;;;-1.88;88.60;98977.91;8429054;28;20044;-83
2021/12/08 00:13:34;;;;;;;64.88;22.67;;;;;;;-1.84;88.34;98973.75;8428626;28;20051;-86
2021/12/08 00:17:34;;;;;;;73.10;23.92;;;;;;;-1.88;88.50;98959.38;8428359;28;20052;-87
2021/12/08 00:21:35;;;;;;;70.30;24.42;;;;;;;-1.87;88.78;98942.47;8428464;28;20089;-84
2021/12/08 00:25:37;;;;;;;74.80;22.60;;;;;;;-1.81;88.18;98925.66;8429427;28;20044;-86
2021/12/08 00:29:38;;;;;;;71.70;23.75;;;;;;;-1.75;87.93;98930.03;8428479;28;20485;-90
2021/12/08 00:33:38;;;;;;;67.78;22.55;;;;;;;-1.87;88.24;98934.53;8428597;28;20101;-85
2021/12/08 00:37:40;;;;;;;62.00;23.27;;;;;;;-1.89;88.62;98923.38;8428763;28;20048;-86
2021/12/08 00:41:41;;;;;;;70.95;23.02;;;;;;;-1.92;88.92;98918.53;8395121;28;20048;-85
2021/12/08 00:45:43;;;;;;;63.97;21.80;;;;;;;-1.92;88.64;98918.53;8410192;28;20071;-87
2021/12/08 00:49:46;;;;;;;60.70;22.85;;;;;;;-1.91;88.61;98930.75;8428768;28;20044;-85
2021/12/08 00:53:47;;;;;;;70.40;23.05;;;;;;;-1.89;88.71;98933.94;8429536;28;20048;-85
2021/12/08 00:57:48;;;;;;;64.90;21.60;;;;;;;-1.84;88.55;98915.53;8428483;28;20056;-83
2021/12/08 01:01:49;;;;;;;75.72;22.90;;;;;;;-1.82;88.56;98900.22;8375672;28;20051;-84
2021/12/08 01:05:54;;;;;;;64.63;24.25;;;;;;;-1.94;89.27;98904.72;8410533;28;20143;-84
2021/12/08 01:09:55;;;;;;;67.00;23.85;;;;;;;-1.93;89.26;98895.75;8428492;28;20048;-83
2021/12/08 01:13:56;;;;;;;63.72;22.50;;;;;;;-2.02;89.81;98915.69;8428614;28;20139;-85
2021/12/08 01:17:57;;;;;;;71.78;24.42;;;;;;;-1.99;89.72;98923.16;8426436;28;20130;-83
2021/12/08 01:21:58;;;;;;;73.82;23.63;;;;;;;-2.08;90.10;98929.84;8426768;28;20163;-85
2021/12/08 01:25:59;;;;;;;81.15;25.15;;;;;;;-2.11;91.00;98930.31;8430914;28;20511;-83
2021/12/08 01:30:01;;;;;;;77.03;23.25;;;;;;;-2.17;91.02;98922.22;8434733;28;20040;-82
2021/12/08 01:34:03;;;;;;;81.45;25.25;;;;;;;-2.20;91.44;98928.00;8433091;28;20040;-85
2021/12/08 01:38:04;;;;;;;72.43;24.67;;;;;;;-2.19;91.53;98924.31;8433182;28;20135;-88
2021/12/08 01:42:06;;;;;;;75.65;26.70;;;;;;;-2.20;91.29;98922.72;8435359;28;20087;-82
2021/12/08 01:46:09;;;;;;;77.10;25.65;;;;;;;-2.27;92.13;98900.84;8434675;28;20494;-81
2021/12/08 01:50:11;;;;;;;67.65;22.50;;;;;;;-2.24;91.96;98895.09;8432254;28;20036;-85
2021/12/08 01:54:11;;;;;;;70.22;22.92;;;;;;;-2.10;91.74;98900.16;8433970;28;20064;-84
2021/12/08 01:58:14;;;;;;;72.65;25.52;;;;;;;-2.07;91.21;98899.69;8434449;28;20505;-87
2021/12/08 02:02:14;;;;;;;73.40;24.40;;;;;;;-2.05;91.53;98881.72;8434070;28;20063;-86
2021/12/08 02:06:18;;;;;;;74.95;24.50;;;;;;;-1.99;90.69;98880.81;8433594;28;20115;-84
2021/12/08 02:10:19;;;;;;;75.28;24.33;;;;;;;-2.04;90.88;98873.56;8397968;28;20060;-84
2021/12/08 02:14:20;;;;;;;70.65;24.70;;;;;;;-2.01;90.79;98867.03;8412993;28;20055;-85
2021/12/08 02:18:21;;;;;;;78.88;25.05;;;;;;;-2.02;90.53;98860.13;8433207;28;20101;-86
2021/12/08 02:22:22;;;;;;;78.65;24.98;;;;;;;-2.01;90.73;98856.44;8433142;28;20367;-87
2021/12/08 02:26:22;;;;;;;75.97;25.75;;;;;;;-2.01;90.49;98846.63;8433047;28;20143;-83
2021/12/08 02:51:51;;;;;;;77.80;23.83;;;;;;;-1.98;91.23;98825.00;8347439;28;20045;-85
2021/12/08 02:55:52;;;;;;;90.05;28.98;;;;;;;-1.96;91.14;98819.50;8361194;28;20075;-85
2021/12/08 02:59:53;;;;;;;88.78;27.30;;;;;;;-2.00;91.41;98815.69;8362027;28;20060;-85
2021/12/08 03:03:54;;;;;;;86.72;25.40;;;;;;;-2.01;91.59;98808.81;8328597;28;20056;-87
2021/12/08 03:07:56;;;;;;;85.95;26.30;;;;;;;-1.98;91.26;98810.97;8344897;28;20057;-86
2021/12/08 03:11:58;;;;;;;90.78;27.60;;;;;;;-2.02;91.51;98807.19;8344954;28;20048;-83
2021/12/08 03:15:59;;;;;;;90.93;27.90;;;;;;;-2.06;92.11;98803.41;8345100;28;20175;-87
2021/12/08 03:20:00;;;;;;;79.93;27.38;;;;;;;-2.04;92.08;98793.38;8361276;28;20123;-83
2021/12/08 03:28:19;;;;;;;84.32;26.77;;;;;;;-2.01;91.92;98787.63;8430526;28;20097;-84
2021/12/08 03:32:37;;;;;;;96.35;28.35;;;;;;;-1.97;91.73;98783.47;8420117;28;20048;-85
2021/12/08 03:36:38;;;;;;;88.97;28.33;;;;;;;-2.04;91.61;98788.09;8431309;28;20055;-85
2021/12/08 03:40:39;;;;;;;87.10;27.90;;;;;;;-2.01;91.77;98769.13;8429227;28;20048;-86
2021/12/08 03:44:40;;;;;;;84.28;24.10;;;;;;;-1.88;91.22;98760.88;8430919;28;20040;-84
2021/12/08 03:48:48;;;;;;;87.53;27.98;;;;;;;-1.93;91.62;98755.50;8429926;28;20389;-85
2021/12/08 03:52:48;;;;;;;86.63;27.60;;;;;;;-2.01;91.42;98745.31;8429187;28;20044;-85
2021/12/08 03:56:49;;;;;;;86.80;27.15;;;;;;;-1.96;91.77;98732.16;8429613;28;20147;-84
2021/12/08 04:00:52;;;;;;;92.22;28.30;;;;;;;-1.87;90.95;98736.84;8429741;28;20055;-85
2021/12/08 04:04:52;;;;;;;93.55;27.55;;;;;;;-1.90;91.08;98731.19;8429862;28;20052;-85
2021/12/08 04:08:56;;;;;;;92.35;28.60;;;;;;;-1.86;91.26;98742.94;8428800;28;20504;-86
2021/12/08 04:12:57;;;;;;;89.57;27.67;;;;;;;-1.86;91.13;98737.63;8395511;28;20649;-85
2021/12/08 04:17:09;;;;;;;90.05;28.20;;;;;;;-1.84;91.20;98724.94;8400992;28;20052;-85
2021/12/08 04:21:11;;;;;;;97.30;28.80;;;;;;;-1.78;91.19;98714.22;8429733;28;20051;-84
2021/12/08 04:25:19;;;;;;;94.65;28.48;;;;;;;-1.83;91.03;98710.69;8409991;28;20048;-85
2021/12/08 04:29:23;;;;;;;88.30;27.08;;;;;;;-1.96;91.00;98711.00;8410506;28;20045;-84
2021/12/08 04:33:25;;;;;;;92.32;27.67;;;;;;;-1.88;91.25;98708.75;8428184;28;20101;-85
2021/12/08 04:37:31;;;;;;;93.72;27.42;;;;;;;-1.97;91.09;98704.91;8430218;28;20036;-86
2021/12/08 04:41:39;;;;;;;90.65;27.42;;;;;;;-2.00;91.41;98715.13;8402621;28;20052;-87
2021/12/08 04:46:24;;;;;;;96.75;28.33;;;;;;;-2.03;91.75;98708.47;8403991;28;20482;-86
2021/12/08 04:50:47;;;;;;;97.55;28.70;;;;;;;-2.03;92.22;98710.31;8408255;28;20059;-86
2021/12/08 05:04:06;;;;;;;90.50;27.85;;;;;;;-1.95;91.73;98696.69;8435537;28;20044;-88
2021/12/08 05:08:17;;;;;;;92.13;27.45;;;;;;;-1.99;92.13;98700.88;8409397;28;20040;-86
2021/12/08 05:12:25;;;;;;;86.72;28.52;;;;;;;-2.00;91.67;98705.34;8434340;28;20055;-87
2021/12/08 05:16:27;;;;;;;86.32;26.80;;;;;;;-2.01;91.98;98708.25;8435654;28;20408;-88
2021/12/08 05:20:31;;;;;;;82.55;27.98;;;;;;;-1.92;91.51;98706.81;8433850;28;20094;-85
2021/12/08 05:24:37;;;;;;;91.88;27.55;;;;;;;-2.02;91.87;98706.66;8432421;28;20059;-87
2021/12/08 05:28:39;;;;;;;92.10;29.42;;;;;;;-2.00;91.99;98709.84;8430466;28;20055;-84
2021/12/08 05:32:41;;;;;;;81.95;27.27;;;;;;;-2.07;92.27;98709.19;8399982;28;20048;-86
2021/12/08 05:36:41;;;;;;;86.53;26.95;;;;;;;-1.94;91.56;98714.19;8416122;28;20472;-83
2021/12/08 05:40:51;;;;;;;86.72;25.35;;;;;;;-1.98;91.62;98715.72;8419591;28;20576;-84
2021/12/08 05:44:52;;;;;;;80.20;25.98;;;;;;;-1.92;91.57;98717.41;8425465;28;20048;-84
2021/12/08 05:48:53;;;;;;;85.50;27.30;;;;;;;-1.98;91.78;98718.34;8412677;28;20050;-84
2021/12/08 05:52:54;;;;;;;102.10;30.08;;;;;;;-2.05;92.12;98722.97;8426338;28;20077;-85
2021/12/08 05:56:56;;;;;;;85.15;28.15;;;;;;;-1.95;91.56;98717.88;8416293;28;20053;-86
2021/12/08 06:01:04;;;;;;;88.10;27.13;;;;;;;-1.92;91.25;98730.63;8386600;28;20135;-84
2021/12/08 06:05:07;;;;;;;87.05;28.23;;;;;;;-1.91;91.33;98719.03;8407237;28;20051;-88
2021/12/08 06:09:09;;;;;;;99.95;30.38;;;;;;;-1.92;91.06;98717.41;8425612;28;20041;-84
2021/12/08 06:13:12;;;;;;;81.50;26.40;;;;;;;-2.02;91.45;98715.38;8403109;28;20465;-85
2021/12/08 06:17:17;;;;;;;88.47;30.10;;;;;;;-1.93;91.30;98705.22;8408366;28;20039;-85
2021/12/08 06:21:21;;;;;;;96.95;31.02;;;;;;;-2.04;91.84;98709.53;8429082;28;20056;-86
2021/12/08 06:25:24;;;;;;;92.55;27.65;;;;;;;-1.96;91.72;98705.69;8420506;28;20437;-85
2021/12/08 06:29:26;;;;;;;95.90;31.05;;;;;;;-1.96;91.71;98711.00;8425857;28;20048;-84
2021/12/08 06:33:26;;;;;;;90.72;31.65;;;;;;;-1.99;92.17;98716.75;8418427;28;20456;-87
2021/12/08 06:37:34;;;;;;;83.88;28.58;;;;;;;-1.90;91.30;98704.72;8423672;28;20377;-82
2021/12/08 06:41:39;;;;;;;98.32;29.52;;;;;;;-1.85;91.06;98707.50;8424393;28;20048;-86
2021/12/08 06:45:45;;;;;;;83.47;28.95;;;;;;;-1.96;91.34;98713.63;8424743;28;20044;-85
2021/12/08 06:49:48;;;;;;;80.65;27.02;;;;;;;-2.11;91.74;98713.38;8429249;28;20078;-82
2021/12/08 06:53:54;;;;;;;71.60;26.10;;;;;;;-2.09;92.07;98716.56;8416981;28;20586;-86
2021/12/08 06:58:02;;;;;;;65.97;24.60;;;;;;;-2.13;91.37;98717.03;8425234;28;20089;-83
2021/12/08 07:02:17;;;;;;;66.43;23.35;;;;;;;-2.24;91.61;98715.25;8403647;28;20509;-87
2021/12/08 07:10:44;;;;;;;64.10;22.92;;;;;;;-2.31;92.07;98725.16;8420643;28;20051;-83
2021/12/08 07:14:58;;;;;;;69.28;24.65;;;;;;;-2.45;92.12;98723.81;8418102;28;20066;-85
2021/12/08 07:19:22;;;;;;;68.20;24.33;;;;;;;-2.49;91.86;98730.59;8403832;28;20147;-80
2021/12/08 07:23:36;;;;;;;74.00;24.42;;;;;;;-2.52;91.77;98725.78;8409909;28;20109;-86
2021/12/08 07:27:37;;;;;;;71.22;23.77;;;;;;;-2.56;91.60;98737.84;8421651;28;20051;-87
2021/12/08 07:31:43;;;;;;;73.40;23.38;;;;;;;-2.53;91.19;98732.09;8413947;28;20401;-83
2021/12/08 07:35:51;;;;;;;77.93;25.27;;;;;;;-2.56;91.51;98728.09;8407308;28;20122;-83
2021/12/08 07:40:04;;;;;;;83.30;27.08;;;;;;;-2.47;91.41;98717.94;8408937;28;20052;-87
2021/12/08 07:44:09;;;;;;;86.63;27.30;;;;;;;-2.31;90.77;98730.44;8426620;28;20064;-83
2021/12/08 07:48:14;;;;;;;84.07;26.30;;;;;;;-2.43;90.87;98727.00;8423654;28;20462;-85
2021/12/08 07:52:20;;;;;;;87.78;28.75;;;;;;;-2.30;90.96;98716.19;8426677;28;20425;-84
2021/12/08 07:56:23;;;;;;;90.63;28.20;;;;;;;-2.35;90.93;98713.44;8425049;28;20056;-82
2021/12/08 08:00:36;;;;;;;93.57;29.08;;;;;;;-2.37;90.99;98715.50;8429514;28;20105;-82
2021/12/08 08:04:40;;;;;;;94.72;28.08;;;;;;;-2.34;90.96;98715.03;8430337;28;20078;-85
2021/12/08 08:08:41;;;;;;;88.20;27.50;;;;;;;-2.25;90.91;98716.28;8388851;28;20048;-84
2021/12/08 08:12:47;;;;;;;94.45;27.75;;;;;;;-2.21;90.38;98709.47;8428225;28;20051;-85
2021/12/08 08:16:51;;;;;;;89.78;25.88;;;;;;;-2.16;90.03;98695.53;8430330;28;20062;-91
2021/12/08 08:20:56;;;;;;;83.38;26.77;;;;;;;-1.95;89.37;98699.34;8429978;28;20052;-87
2021/12/08 08:25:00;;;;;;;76.85;24.85;;;;;;;-1.84;88.60;98693.19;8421086;28;20404;-85
2021/12/08 08:29:01;;;;;;;89.97;27.33;;;;;;;-1.89;88.23;98706.34;8408683;28;20115;-85
2021/12/08 08:33:03;;;;;;;79.80;23.85;;;;;;;-1.99;88.32;98706.16;8430395;28;20084;-87
2021/12/08 08:37:09;;;;;;;81.15;23.65;;;;;;;-2.14;88.55;98710.13;8412624;28;20231;-87
2021/12/08 08:41:29;;;;;;;72.50;23.50;;;;;;;-2.11;89.13;98718.66;8429755;28;20052;-88
2021/12/08 08:45:45;;;;;;;76.53;25.85;;;;;;;-1.94;88.56;98714.19;8428855;28;20048;-85
2021/12/08 08:49:46;;;;;;;69.43;23.63;;;;;;;-1.78;87.88;98713.41;8426313;28;20044;-87
2021/12/08 08:53:50;;;;;;;72.07;24.35;;;;;;;-1.81;87.60;98713.91;8396933;28;20079;-87
2021/12/08 08:57:51;;;;;;;77.65;25.75;;;;;;;-1.80;87.80;98710.22;8395131;28;20045;-85
2021/12/08 09:01:55;;;;;;;68.53;23.83;;;;;;;-1.82;87.40;98718.41;8396595;28;20135;-90
2021/12/08 09:06:04;;;;;;;90.43;26.02;;;;;;;-1.74;87.24;98709.25;8397063;28;20059;-91
2021/12/08 09:10:17;;;;;;;72.32;24.08;;;;;;;-1.64;87.31;98711.28;8376733;28;20410;-88
2021/12/08 09:14:28;;;;;;;78.70;26.00;;;;;;;-1.71;87.17;98714.09;8404483;28;20075;-88
2021/12/08 09:18:46;;;;;;;72.50;24.10;;;;;;;-1.77;87.23;98715.03;8426239;28;20064;-86
2021/12/08 09:23:11;;;;;;;69.68;20.77;;;;;;;-1.70;86.55;98710.41;8428506;28;20131;-83
2021/12/08 09:27:15;;;;;;;64.25;20.92;;;;;;;-1.77;86.40;98694.66;8427947;28;20052;-85
2021/12/08 09:31:30;;;;;;;68.55;22.67;;;;;;;-1.78;86.60;98686.94;8409157;28;20377;-85
2021/12/08 09:35:42;;;;;;;70.95;23.65;;;;;;;-1.68;86.45;98695.06;8411969;28;20064;-89
2021/12/08 09:39:47;;;;;;;84.32;25.05;;;;;;;-1.70;86.13;98675.97;8411168;28;20053;-84
2021/12/08 09:44:19;;;;;;;76.93;24.60;;;;;;;-1.62;85.65;98674.75;8411304;28;20616;-87
2021/12/08 09:48:20;;;;;;;84.40;26.30;;;;;;;-1.67;85.67;98674.69;8330102;28;20132;-87
2021/12/08 09:52:21;;;;;;;81.95;25.90;;;;;;;-1.67;86.00;98667.53;8331363;28;20061;-83
2021/12/08 09:56:24;;;;;;;76.85;25.70;;;;;;;-1.70;85.94;98662.75;8331314;28;20096;-90
2021/12/08 10:00:29;;;;;;;73.00;23.88;;;;;;;-1.83;85.72;98657.75;8346402;28;20139;-89
2021/12/08 10:04:30;;;;;;;64.88;21.95;;;;;;;-1.70;85.52;98636.28;8347963;28;20057;-85
2021/12/08 10:08:31;;;;;;;61.35;19.33;;;;;;;-1.65;85.07;98620.47;8367206;28;20057;-87
2021/12/08 10:12:34;;;;;;;69.20;21.42;;;;;;;-1.59;84.58;98606.25;8368082;28;20508;-87
2021/12/08 10:16:37;;;;;;;69.38;21.88;;;;;;;-1.60;84.46;98609.94;8347759;28;20429;-88
2021/12/08 10:20:52;;;;;;;59.40;20.13;;;;;;;-1.67;84.76;98619.88;8364181;28;20049;-87
2021/12/08 10:25:16;;;;;;;66.50;20.95;;;;;;;-1.82;84.96;98606.41;8357576;28;20057;-89
2021/12/08 10:29:25;;;;;;;69.78;21.00;;;;;;;-1.69;84.68;98600.78;8402632;28;20049;-86
2021/12/08 10:38:00;;;;;;;74.13;23.40;;;;;;;-1.59;83.56;98594.88;8433797;28;20105;-89
2021/12/08 10:42:07;;;;;;;79.20;24.88;;;;;;;-1.75;84.24;98596.47;8433531;28;20052;-85
2021/12/08 10:46:10;;;;;;;72.00;22.92;;;;;;;-1.93;85.24;98604.66;8433777;28;20044;-88
2021/12/08 10:54:34;;;;;;;81.47;25.08;;;;;;;-1.99;85.29;98600.31;8432795;28;20052;-90
2021/12/08 10:58:39;;;;;;;76.50;24.80;;;;;;;-1.96;85.16;98591.91;8433439;28;20048;-90
2021/12/08 11:02:54;;;;;;;76.40;23.75;;;;;;;-1.89;85.14;98597.81;8430386;28;20488;-88
2021/12/08 11:07:03;;;;;;;84.57;24.33;;;;;;;-1.94;84.93;98605.69;8431418;28;20052;-89
2021/12/08 11:11:12;;;;;;;69.80;21.30;;;;;;;-2.02;84.83;98600.81;8432342;28;20040;-87
2021/12/08 11:15:22;;;;;;;70.60;22.08;;;;;;;-1.97;84.74;98619.41;8423322;28;20417;-87
2021/12/08 11:19:24;;;;;;;73.60;22.23;;;;;;;-2.21;85.15;98611.59;8397025;28;20102;-88
2021/12/08 11:23:44;;;;;;;69.13;22.77;;;;;;;-2.20;84.83;98602.63;8426751;28;20729;-89
2021/12/08 11:27:44;;;;;;;68.78;23.10;;;;;;;-2.21;85.41;98619.53;8413454;28;20036;-91
2021/12/08 11:31:47;;;;;;;69.65;22.52;;;;;;;-2.14;85.04;98614.91;8367299;28;20139;-90
2021/12/08 11:35:49;;;;;;;65.05;21.90;;;;;;;-2.27;85.65;98611.72;8422151;28;20051;-88
2021/12/08 11:39:58;;;;;;;73.45;23.77;;;;;;;-2.30;85.67;98599.81;8418824;28;20079;-89
2021/12/08 11:43:59;;;;;;;74.10;22.52;;;;;;;-2.21;85.43;98577.22;8423673;28;20401;-89
2021/12/08 11:48:00;;;;;;;67.43;21.63;;;;;;;-2.14;84.91;98593.75;8430106;28;20063;-87
2021/12/08 11:52:09;;;;;;;64.25;20.48;;;;;;;-2.49;85.65;98579.09;8431671;28;20052;-85
2021/12/08 11:56:30;;;;;;;65.70;22.52;;;;;;;-2.40;85.71;98567.91;8430319;28;20051;-90
2021/12/08 12:00:35;;;;;;;60.95;20.60;;;;;;;-2.27;85.48;98567.56;8430171;28;20067;-91
2021/12/08 12:04:36;;;;;;;68.65;21.83;;;;;;;-2.49;85.03;98564.03;8429900;28;20485;-92
2021/12/08 12:08:37;;;;;;;63.45;22.05;;;;;;;-2.41;85.19;98566.28;8431146;28;20052;-89
2021/12/08 12:12:41;;;;;;;76.07;21.85;;;;;;;-2.39;84.61;98564.22;8431311;28;20131;-89
2021/12/08 12:16:43;;;;;;;60.00;19.73;;;;;;;-2.40;84.60;98557.31;8412315;28;20051;-87
2021/12/08 12:20:46;;;;;;;67.20;21.05;;;;;;;-2.39;84.47;98558.94;8430785;28;20094;-89
2021/12/08 12:24:56;;;;;;;55.78;20.55;;;;;;;-2.39;84.68;98548.34;8429495;28;20547;-90
2021/12/08 12:29:22;;;;;;;55.25;20.10;;;;;;;-2.25;83.93;98549.63;8429841;28;20068;-91
2021/12/08 12:33:23;;;;;;;58.60;21.83;;;;;;;-2.34;84.44;98540.50;8396195;28;20056;-86
2021/12/08 12:37:31;;;;;;;54.08;19.85;;;;;;;-2.37;84.31;98540.97;8396191;28;20141;-87
2021/12/08 12:41:33;;;;;;;73.68;23.23;;;;;;;-2.56;85.07;98526.38;8400020;28;20052;-89
2021/12/08 12:45:39;;;;;;;57.42;21.63;;;;;;;-2.54;85.07;98519.00;8396950;28;20048;-92
2021/12/08 12:49:52;;;;;;;67.07;23.83;;;;;;;-2.37;84.76;98519.81;8427909;28;20123;-88
2021/12/08 12:53:54;;;;;;;67.10;22.58;;;;;;;-2.40;84.33;98515.00;8404682;28;20133;-87
2021/12/08 12:58:01;;;;;;;63.22;21.95;;;;;;;-2.30;84.31;98509.06;8427961;28;20045;-89
2021/12/08 13:02:07;;;;;;;70.20;22.40;;;;;;;-2.41;84.10;98505.47;8410650;28;20048;-90
2021/12/08 13:06:10;;;;;;;64.20;20.77;;;;;;;-2.46;84.69;98500.09;8417135;28;20048;-86
2021/12/08 13:10:15;;;;;;;66.65;20.48;;;;;;;-2.46;84.65;98494.81;8408498;28;20041;-87
2021/12/08 13:14:21;;;;;;;67.47;20.88;;;;;;;-2.43;84.48;98489.03;8394841;28;20094;-91
2021/12/08 13:18:23;;;;;;;57.40;20.48;;;;;;;-2.50;85.00;98498.97;8393574;28;20048;-86
2021/12/08 13:22:44;;;;;;;69.50;22.00;;;;;;;-2.43;84.97;98504.91;8398448;28;20099;-86
2021/12/08 13:26:47;;;;;;;67.47;21.45;;;;;;;-2.54;84.95;98524.28;8400547;28;20055;-82
2021/12/08 13:31:04;;;;;;;72.93;21.50;;;;;;;-2.46;85.34;98526.53;8400288;28;20459;-83
2021/12/08 13:35:05;;;;;;;74.63;22.83;;;;;;;-2.50;84.93;98520.13;8400219;28;20041;-82
2021/12/08 13:39:19;;;;;;;72.22;23.67;;;;;;;-2.57;85.22;98524.75;8400643;28;20394;-84
2021/12/08 13:43:42;;;;;;;69.82;22.05;;;;;;;-2.58;85.21;98523.16;8362965;28;20426;-83
2021/12/08 13:47:48;;;;;;;68.57;22.38;;;;;;;-2.56;85.40;98526.38;8346187;28;20132;-84
2021/12/08 13:52:06;;;;;;;65.57;21.17;;;;;;;-2.53;85.38;98520.59;8358481;28;20045;-85
2021/12/08 13:56:07;;;;;;;74.53;22.00;;;;;;;-2.54;84.97;98513.72;8375162;28;20080;-83
2021/12/08 14:00:17;;;;;;;65.97;21.00;;;;;;;-2.57;85.16;98530.03;8363610;28;20059;-88
2021/12/08 14:04:18;;;;;;;71.45;22.92;;;;;;;-2.49;85.08;98542.88;8370464;28;20057;-82
2021/12/08 14:08:24;;;;;;;81.53;26.15;;;;;;;-2.59;85.19;98542.72;8365814;28;20084;-85
2021/12/08 14:12:48;;;;;;;79.28;24.95;;;;;;;-2.62;85.51;98551.09;8390073;28;20439;-84
2021/12/08 14:16:49;;;;;;;63.67;22.13;;;;;;;-2.57;85.29;98551.19;8417187;28;20446;-87
2021/12/08 14:20:52;;;;;;;69.82;22.80;;;;;;;-2.60;84.88;98541.09;8432039;28;20041;-87
2021/12/08 14:24:57;;;;;;;72.07;24.50;;;;;;;-2.70;85.75;98535.63;8428684;28;20097;-84
2021/12/08 14:29:10;;;;;;;69.22;23.92;;;;;;;-2.62;85.39;98532.59;8428436;28;20537;-86
2021/12/08 14:33:10;;;;;;;69.85;22.25;;;;;;;-2.60;84.94;98541.09;8418689;28;20111;-88
2021/12/08 14:37:14;;;;;;;72.68;24.67;;;;;;;-2.66;85.43;98542.03;8431536;28;20131;-87
2021/12/08 14:41:23;;;;;;;67.88;22.08;;;;;;;-2.63;85.35;98537.06;8431910;28;20055;-88
2021/12/08 14:45:28;;;;;;;70.20;23.27;;;;;;;-2.71;85.94;98529.53;8410913;28;20670;-87
2021/12/08 14:49:32;;;;;;;75.97;24.40;;;;;;;-2.73;86.03;98525.53;8376908;28;20416;-88
2021/12/08 14:53:35;;;;;;;74.88;23.73;;;;;;;-2.77;86.27;98521.75;8425355;28;20036;-86
2021/12/08 14:57:39;;;;;;;67.13;22.42;;;;;;;-2.75;86.21;98522.34;8410551;28;20135;-82
2021/12/08 15:01:40;;;;;;;73.97;23.15;;;;;;;-2.75;86.31;98522.34;8425675;28;20419;-90
2021/12/08 15:05:45;;;;;;;72.07;23.45;;;;;;;-2.78;86.14;98526.25;8412138;28;20505;-86
2021/12/08 15:09:59;;;;;;;74.28;26.02;;;;;;;-2.80;86.60;98530.16;8407800;28;20166;-89
2021/12/08 15:14:00;;;;;;;79.35;25.42;;;;;;;-2.86;86.41;98528.47;8427074;28;20071;-86
2021/12/08 15:18:10;;;;;;;69.65;23.02;;;;;;;-2.85;86.97;98527.41;8423713;28;20825;-83
2021/12/08 15:22:12;;;;;;;75.25;25.00;;;;;;;-2.89;86.67;98515.72;8431362;28;20510;-86
2021/12/08 15:26:15;;;;;;;72.38;24.40;;;;;;;-2.90;86.42;98519.38;8430646;28;20599;-88
2021/12/08 15:30:36;;;;;;;74.93;27.45;;;;;;;-3.01;86.63;98513.91;8417281;28;20068;-84
2021/12/08 15:34:37;;;;;;;66.97;22.70;;;;;;;-2.99;87.20;98517.13;8397884;28;20048;-87
2021/12/08 15:38:45;;;;;;;88.15;29.25;;;;;;;-2.93;86.84;98514.59;8396730;28;20532;-84
2021/12/08 15:42:53;;;;;;;87.88;27.20;;;;;;;-3.06;86.90;98511.19;8406588;28;20070;-86
2021/12/08 15:46:55;;;;;;;90.07;26.60;;;;;;;-3.10;87.21;98515.34;8428593;28;20051;-84
2021/12/08 15:51:04;;;;;;;84.55;27.25;;;;;;;-3.08;87.44;98507.19;8427687;28;20044;-85
2021/12/08 15:55:06;;;;;;;85.18;26.58;;;;;;;-3.02;87.19;98506.25;8429448;28;20131;-85
2021/12/08 15:59:28;;;;;;;81.53;26.88;;;;;;;-2.99;86.98;98509.22;8429533;28;20051;-87
2021/12/08 16:03:59;;;;;;;103.53;32.40;;;;;;;-3.01;87.06;98524.47;8428970;28;20044;-83
2021/12/08 16:08:03;;;;;;;108.95;29.98;;;;;;;-3.02;87.31;98528.19;8325117;28;20049;-85
2021/12/08 16:12:04;;;;;;;84.70;27.02;;;;;;;-3.06;87.10;98513.81;8306640;28;20132;-83
2021/12/08 16:16:06;;;;;;;81.88;25.30;;;;;;;-3.10;87.08;98531.19;8325469;28;20056;-87
2021/12/08 16:20:14;;;;;;;94.88;28.27;;;;;;;-3.13;86.90;98531.66;8305596;28;20072;-83
2021/12/08 16:24:15;;;;;;;80.38;27.55;;;;;;;-3.32;88.02;98539.94;8321354;28;20053;-84
2021/12/08 16:28:19;;;;;;;83.95;27.75;;;;;;;-3.44;88.57;98535.50;8291557;28;20049;-83
2021/12/08 16:32:21;;;;;;;85.95;29.42;;;;;;;-3.33;88.26;98541.78;8301123;28;20084;-87
2021/12/08 16:36:22;;;;;;;85.47;27.55;;;;;;;-3.30;88.08;98524.69;8323934;28;20065;-87
2021/12/08 16:43:00;;;;;;;85.28;28.98;;;;;;;-3.24;88.06;98535.13;8326335;28;20053;-86
2021/12/08 16:44:46;;;;;;;79.35;28.88;;;;;;;-3.15;86.94;98528.44;8374221;28;20059;-88
2021/12/08 16:48:47;;;;;;;84.55;30.38;;;;;;;-3.13;87.19;98521.09;8405875;28;20044;-87
2021/12/08 16:52:51;;;;;;;77.93;28.00;;;;;;;-3.28;87.16;98512.88;8401683;28;20055;-85
2021/12/08 16:56:52;;;;;;;80.20;22.60;;;;;;;-3.25;87.24;98507.13;8399788;28;20053;-84
2021/12/08 17:00:55;;;;;;;80.75;26.70;;;;;;;-3.22;86.96;98511.91;8403025;28;20040;-84
2021/12/08 17:04:56;;;;;;;90.70;28.42;;;;;;;-3.33;87.57;98509.34;8411868;28;20542;-84
2021/12/08 17:09:17;;;;;;;86.22;28.25;;;;;;;-3.31;87.97;98507.25;8365268;28;20040;-84
2021/12/08 17:13:20;;;;;;;91.30;28.35;;;;;;;-3.31;87.98;98497.47;8367012;28;20175;-85
2021/12/08 17:17:22;;;;;;;83.90;27.98;;;;;;;-3.28;87.74;98490.94;8385990;28;20082;-84
2021/12/08 17:21:23;;;;;;;93.32;30.17;;;;;;;-3.23;87.75;98473.38;8371361;28;20075;-85
2021/12/08 17:25:24;;;;;;;92.20;29.50;;;;;;;-3.27;87.40;98477.50;8366661;28;20047;-85
2021/12/08 17:29:25;;;;;;;84.32;28.17;;;;;;;-3.35;87.61;98485.78;8367236;28;20049;-89
2021/12/08 17:33:26;;;;;;;90.10;28.20;;;;;;;-3.48;88.10;98480.75;8368672;28;20569;-86
2021/12/08 17:37:27;;;;;;;88.97;28.17;;;;;;;-3.37;87.86;98477.28;8369508;28;20063;-85
2021/12/08 17:41:28;;;;;;;98.47;29.35;;;;;;;-3.37;87.77;98482.56;8433614;28;20079;-86
2021/12/08 17:45:32;;;;;;;95.80;28.85;;;;;;;-3.33;87.65;98491.63;8433683;28;20366;-85
2021/12/08 17:49:33;;;;;;;88.03;28.00;;;;;;;-3.31;87.37;98492.19;8433297;28;20048;-86
2021/12/08 17:53:34;;;;;;;88.57;27.45;;;;;;;-3.32;87.34;98484.50;8432402;28;20154;-85
2021/12/08 17:57:37;;;;;;;83.55;28.88;;;;;;;-3.40;87.63;98488.34;8428221;28;20047;-84
2021/12/08 18:01:39;;;;;;;93.70;29.30;;;;;;;-3.33;87.22;98486.34;8431900;28;20045;-87
2021/12/08 18:05:40;;;;;;;89.82;27.13;;;;;;;-3.31;87.70;98497.47;8432018;28;20043;-85
2021/12/08 18:09:41;;;;;;;78.30;26.05;;;;;;;-3.42;87.65;98485.91;8431582;28;20050;-83
2021/12/08 18:13:42;;;;;;;78.35;27.85;;;;;;;-3.45;87.64;98469.75;8432363;28;20493;-85
2021/12/08 18:17:44;;;;;;;73.70;25.42;;;;;;;-3.40;87.73;98477.78;8431209;28;20036;-85
2021/12/08 18:21:45;;;;;;;81.32;26.55;;;;;;;-3.47;88.14;98466.53;8428441;28;20105;-85
2021/12/08 18:25:47;;;;;;;83.28;26.88;;;;;;;-3.56;88.42;98467.94;8429913;28;20036;-85
2021/12/08 18:29:48;;;;;;;79.65;27.52;;;;;;;-3.56;88.73;98463.47;8403026;28;20047;-83
2021/12/08 18:33:51;;;;;;;77.07;26.50;;;;;;;-3.45;88.76;98453.91;8394108;28;20105;-86
2021/12/08 18:37:58;;;;;;;74.13;24.92;;;;;;;-3.41;88.58;98465.59;8408307;28;20389;-85
2021/12/08 18:42:01;;;;;;;81.38;25.10;;;;;;;-3.49;88.86;98463.34;8419640;28;20097;-85
2021/12/08 18:46:05;;;;;;;78.82;25.52;;;;;;;-3.54;89.55;98465.84;8430009;28;20052;-82
2021/12/08 18:50:06;;;;;;;75.93;27.10;;;;;;;-3.38;89.04;98465.13;8429059;28;20781;-85
2021/12/08 18:54:07;;;;;;;71.47;25.52;;;;;;;-3.41;89.18;98465.59;8428887;28;20060;-85
2021/12/08 18:58:09;;;;;;;86.00;27.58;;;;;;;-3.35;89.08;98463.88;8431403;28;20069;-87
2021/12/08 19:02:11;;;;;;;78.07;26.58;;;;;;;-3.39;89.57;98465.38;8395504;28;20143;-88
2021/12/08 19:06:17;;;;;;;79.63;25.73;;;;;;;-3.22;89.10;98448.53;8431158;28;20059;-88
2021/12/08 19:10:19;;;;;;;82.90;28.20;;;;;;;-3.32;89.13;98445.72;8394769;28;20514;-88
2021/12/08 19:14:21;;;;;;;90.05;27.38;;;;;;;-3.32;89.40;98456.28;8411338;28;20413;-84
2021/12/08 19:18:22;;;;;;;84.75;27.75;;;;;;;-3.30;89.78;98453.41;8393303;28;20120;-85
2021/12/08 19:22:27;;;;;;;83.63;28.58;;;;;;;-3.24;89.27;98455.91;8343642;28;20386;-85
2021/12/08 19:26:28;;;;;;;83.28;28.55;;;;;;;-3.20;89.36;98466.78;8396257;28;20480;-84
2021/12/08 19:30:33;;;;;;;81.35;26.40;;;;;;;-3.24;89.56;98461.19;8415807;28;20100;-84
2021/12/08 19:34:35;;;;;;;84.50;27.73;;;;;;;-3.34;89.97;98471.56;8390431;28;20144;-88